Time;durP1;ratioP1;P1;durP2;ratioP2;P2;SDS_P1;SDS_P2;PMS_P1;PMS_P2;Temp;Humidity;BMP_temperature;BMP_pressure;BME280_temperature;BME280_humidity;BME280_pressure;Samples;Min_cycle;Max_cycle;Signal;HPM_P1;HPM_P2
2021/08/31 00:00:38;;;;;;;;;21.75;16.75;;;;;18.90;72.01;102023.63;5035241;28;48485;-79
2021/08/31 00:03:04;;;;;;;;;18.50;15.25;;;;;18.90;72.39;102017.44;5035993;28;46315;-79
2021/08/31 00:05:29;;;;;;;;;20.25;17.25;;;;;18.92;71.93;102023.53;5034949;28;47935;-79
2021/08/31 00:07:54;;;;;;;;;18.25;15.25;;;;;18.91;72.54;102021.81;5035403;28;58702;-79
2021/08/31 00:10:19;;;;;;;;;17.75;17.75;;;;;18.92;72.50;102023.53;5035660;28;56390;-78
2021/08/31 00:12:45;;;;;;;;;20.25;16.75;;;;;18.94;71.73;102024.28;5036369;28;45332;-78
2021/08/31 00:15:10;;;;;;;;;24.00;21.25;;;;;18.89;71.94;102021.88;5035327;28;47209;-78
2021/08/31 00:17:36;;;;;;;;;16.00;15.00;;;;;18.88;72.21;102022.84;5035673;28;45926;-79
2021/08/31 00:20:05;;;;;;;;;20.25;16.50;;;;;18.87;72.34;102023.78;5034941;28;45495;-79
2021/08/31 00:22:31;;;;;;;;;23.50;17.25;;;;;18.88;72.52;102014.00;5035227;28;45617;-79
2021/08/31 00:24:56;;;;;;;;;21.00;13.75;;;;;18.87;71.95;102014.94;5036900;28;46115;-79
2021/08/31 00:27:21;;;;;;;;;17.75;16.25;;;;;18.91;71.85;102017.34;5035615;28;46163;-79
2021/08/31 00:29:47;;;;;;;;;22.00;18.75;;;;;18.86;72.21;102010.56;5035852;28;45561;-79
2021/08/31 00:32:12;;;;;;;;;20.75;17.25;;;;;18.86;71.85;102022.09;5035506;28;45798;-79
2021/08/31 00:34:37;;;;;;;;;17.25;15.75;;;;;18.87;71.97;102017.63;5035796;28;45630;-79
2021/08/31 00:37:03;;;;;;;;;20.50;17.75;;;;;18.85;72.21;102022.19;5035985;28;46114;-78
2021/08/31 00:39:28;;;;;;;;;18.50;14.75;;;;;18.84;72.06;102020.44;5035033;28;45578;-78
2021/08/31 00:41:54;;;;;;;;;21.00;18.50;;;;;18.82;72.17;102019.69;5035936;28;45262;-79
2021/08/31 00:44:21;;;;;;;;;19.00;17.75;;;;;18.81;71.80;102018.81;5035536;28;45479;-77
2021/08/31 00:46:49;;;;;;;;;18.00;16.00;;;;;18.77;71.81;102012.81;5035201;28;46408;-78
2021/08/31 00:49:14;;;;;;;;;17.75;16.50;;;;;18.73;72.31;102007.75;5034627;28;45399;-79
2021/08/31 00:51:40;;;;;;;;;15.75;15.50;;;;;18.71;72.23;102004.31;5035740;28;45431;-79
2021/08/31 00:54:05;;;;;;;;;21.50;16.75;;;;;18.66;72.10;102004.53;5035704;28;45398;-78
2021/08/31 00:56:31;;;;;;;;;19.75;16.00;;;;;18.62;72.46;102013.63;5035303;28;45419;-77
2021/08/31 00:58:56;;;;;;;;;13.50;13.00;;;;;18.62;72.03;102010.13;5035229;28;45366;-78
2021/08/31 01:01:23;;;;;;;;;20.75;19.25;;;;;18.58;72.32;102012.09;5035477;28;45341;-79
2021/08/31 01:03:48;;;;;;;;;18.75;18.75;;;;;18.57;72.33;102006.84;5035331;28;45501;-78
2021/08/31 01:06:13;;;;;;;;;21.75;17.00;;;;;18.57;72.75;102014.84;5034516;28;45590;-78
2021/08/31 01:08:39;;;;;;;;;19.00;17.00;;;;;18.59;72.15;102018.31;5034217;28;45652;-78
2021/08/31 01:11:05;;;;;;;;;23.00;18.50;;;;;18.58;72.79;102017.41;5034836;28;46197;-79
2021/08/31 01:13:35;;;;;;;;;18.50;16.00;;;;;18.55;72.90;102022.06;5035110;28;45692;-77
2021/08/31 01:16:01;;;;;;;;;19.50;17.25;;;;;18.56;72.85;102023.78;5036173;28;45443;-78
2021/08/31 01:18:27;;;;;;;;;25.00;20.00;;;;;18.49;73.07;102021.47;5034069;28;45767;-78
2021/08/31 01:20:56;;;;;;;;;22.00;16.25;;;;;18.51;73.06;102026.69;5016766;28;45527;-78
2021/08/31 01:23:23;;;;;;;;;19.00;18.00;;;;;18.54;73.20;102028.34;5035480;28;45530;-77
2021/08/31 01:25:49;;;;;;;;;14.50;13.75;;;;;18.57;72.91;102030.81;5034563;28;46112;-78
2021/08/31 01:28:30;;;;;;;;;18.75;15.25;;;;;18.54;73.05;102015.91;5035557;28;45538;-79
2021/08/31 01:30:57;;;;;;;;;15.25;14.75;;;;;18.63;73.08;102027.81;5034286;28;45497;-78
2021/08/31 01:33:26;;;;;;;;;13.75;12.00;;;;;18.64;72.68;102035.72;5034472;28;45618;-77
2021/08/31 01:35:52;;;;;;;;;13.00;10.50;;;;;18.63;72.79;102028.66;5034744;28;45495;-77
2021/08/31 01:38:17;;;;;;;;;16.50;14.00;;;;;18.63;72.93;102039.31;5034530;28;45289;-79
2021/08/31 01:40:42;;;;;;;;;16.50;11.50;;;;;18.52;72.72;102021.28;5033749;28;45491;-78
2021/08/31 01:43:08;;;;;;;;;14.25;12.00;;;;;18.60;73.25;102033.31;5034733;28;51695;-79
2021/08/31 01:45:47;;;;;;;;;14.00;10.00;;;;;18.58;73.11;102027.22;5034396;28;45376;-79
2021/08/31 01:48:13;;;;;;;;;14.75;11.25;;;;;18.48;73.18;102022.44;5034130;28;45948;-79
2021/08/31 01:50:39;;;;;;;;;13.50;9.75;;;;;18.52;73.21;102036.41;5033662;28;45410;-79
2021/08/31 01:53:05;;;;;;;;;13.75;12.25;;;;;18.49;73.30;102041.91;5034273;28;45420;-78
2021/08/31 01:55:31;;;;;;;;;10.50;9.50;;;;;18.42;72.94;102030.72;5034418;28;46443;-78
2021/08/31 01:57:56;;;;;;;;;8.00;8.00;;;;;18.46;73.24;102034.09;5034665;28;45786;-79
2021/08/31 02:00:22;;;;;;;;;10.50;9.25;;;;;18.42;73.10;102029.88;5034303;28;45742;-77
2021/08/31 02:02:47;;;;;;;;;11.25;8.50;;;;;18.40;73.49;102026.44;5034158;28;45427;-79
2021/08/31 02:05:12;;;;;;;;;11.25;8.25;;;;;18.35;72.82;102021.38;5034675;28;45436;-79
2021/08/31 02:07:38;;;;;;;;;9.75;8.25;;;;;18.34;72.85;102032.97;5033655;28;48058;-78
2021/08/31 02:10:04;;;;;;;;;14.25;9.25;;;;;18.30;72.98;102034.06;5034157;28;49996;-79
2021/08/31 02:12:30;;;;;;;;;12.00;10.00;;;;;18.26;73.10;102035.16;5033818;28;45510;-78
2021/08/31 02:14:55;;;;;;;;;13.00;10.00;;;;;18.25;73.61;102036.13;5033880;28;45883;-79
2021/08/31 02:17:20;;;;;;;;;12.00;10.00;;;;;18.27;73.15;102036.91;5033709;28;45672;-79
2021/08/31 02:19:46;;;;;;;;;12.00;9.25;;;;;18.28;73.00;102043.09;5033177;28;46249;-77
2021/08/31 02:22:11;;;;;;;;;9.25;8.75;;;;;18.25;73.63;102036.13;5034942;28;55555;-79
2021/08/31 02:24:37;;;;;;;;;12.25;10.50;;;;;18.25;73.44;102039.63;5033635;28;57085;-78
2021/08/31 02:27:02;;;;;;;;;10.25;10.25;;;;;18.24;73.80;102035.25;5034127;28;45455;-78
2021/08/31 02:29:28;;;;;;;;;12.50;9.50;;;;;18.28;73.28;102041.28;5034071;28;45335;-79
2021/08/31 02:31:53;;;;;;;;;14.50;12.75;;;;;18.28;73.26;102043.09;5033314;28;53553;-79
2021/08/31 02:34:18;;;;;;;;;18.00;12.50;;;;;18.21;73.41;102039.88;5034500;28;46050;-79
2021/08/31 02:36:44;;;;;;;;;10.50;9.75;;;;;18.21;73.90;102031.91;5033284;28;51866;-78
2021/08/31 02:39:09;;;;;;;;;12.50;12.00;;;;;18.19;73.64;102032.00;5033318;28;46441;-78
2021/08/31 02:41:35;;;;;;;;;9.75;9.75;;;;;18.18;73.54;102029.44;5033722;28;45442;-79
2021/08/31 02:44:00;;;;;;;;;13.00;10.25;;;;;18.19;72.98;102029.34;5033401;28;46224;-78
2021/08/31 02:46:25;;;;;;;;;13.00;10.25;;;;;18.13;73.22;102021.69;5033772;28;45793;-79
2021/08/31 02:48:50;;;;;;;;;17.50;12.00;;;;;18.20;73.82;102039.03;5033186;28;45483;-78
2021/08/31 02:51:16;;;;;;;;;12.75;10.50;;;;;18.18;73.80;102029.44;5033299;28;45407;-79
2021/08/31 02:53:41;;;;;;;;;12.25;12.00;;;;;18.23;73.63;102038.03;5033311;28;45352;-78
2021/08/31 02:56:06;;;;;;;;;11.50;11.50;;;;;18.24;73.39;102042.38;5033783;28;45703;-79
2021/08/31 02:58:32;;;;;;;;;11.50;10.25;;;;;18.22;73.37;102042.47;5033633;28;45493;-79
2021/08/31 03:01:28;;;;;;;;;12.75;11.00;;;;;18.20;73.44;102027.53;5033100;28;45435;-79
2021/08/31 03:03:53;;;;;;;;;15.75;12.75;;;;;18.19;73.32;102029.34;5034068;28;46037;-79
2021/08/31 03:06:19;;;;;;;;;12.00;8.75;;;;;18.22;73.06;102031.00;5032948;28;45399;-78
2021/08/31 03:08:44;;;;;;;;;10.25;10.00;;;;;18.22;73.49;102023.00;5033080;28;45527;-79
2021/08/31 03:11:10;;;;;;;;;16.00;12.00;;;;;18.14;72.99;102020.75;5034861;28;45511;-77
2021/08/31 03:13:35;;;;;;;;;13.00;11.50;;;;;18.18;73.70;102029.44;5033058;28;45368;-79
2021/08/31 03:16:00;;;;;;;;;16.00;12.50;;;;;18.11;73.64;102020.03;5034023;28;45391;-79
2021/08/31 03:18:26;;;;;;;;;14.25;11.75;;;;;18.16;73.51;102023.31;5031918;28;47909;-78
2021/08/31 03:20:51;;;;;;;;;11.00;10.75;;;;;18.15;73.52;102032.25;5033013;28;45463;-78
2021/08/31 03:23:16;;;;;;;;;10.50;10.50;;;;;18.13;73.44;102028.81;5033468;28;46149;-79
2021/08/31 03:25:42;;;;;;;;;13.00;11.00;;;;;18.13;73.49;102028.81;5033467;28;45423;-78
2021/08/31 03:28:07;;;;;;;;;11.25;11.00;;;;;18.11;73.87;102025.34;5032888;28;45530;-79
2021/08/31 03:30:32;;;;;;;;;13.00;10.00;;;;;18.12;73.48;102037.75;5032526;28;45483;-79
2021/08/31 03:32:58;;;;;;;;;10.25;10.00;;;;;18.13;73.64;102040.31;5033127;28;45432;-79
2021/08/31 03:35:23;;;;;;;;;14.50;13.25;;;;;18.14;73.53;102035.84;5032656;28;47460;-79
2021/08/31 03:37:48;;;;;;;;;13.25;11.25;;;;;18.13;73.78;102040.31;5032509;28;45517;-79
2021/08/31 03:40:14;;;;;;;;;12.25;11.00;;;;;18.16;73.58;102036.59;5032490;28;45717;-79
2021/08/31 03:42:39;;;;;;;;;13.50;12.75;;;;;18.17;73.44;102044.53;5032626;28;45580;-79
2021/08/31 03:45:05;;;;;;;;;15.00;13.00;;;;;18.17;73.75;102047.19;5032505;28;45321;-79
2021/08/31 03:47:30;;;;;;;;;14.75;13.75;;;;;18.18;73.56;102046.25;5032202;28;45380;-79
2021/08/31 03:49:56;;;;;;;;;16.75;13.50;;;;;18.20;73.72;102039.03;5031915;28;45684;-78
2021/08/31 03:52:21;;;;;;;;;14.25;11.00;;;;;18.15;73.25;102033.09;5032673;28;45898;-79
2021/08/31 03:54:46;;;;;;;;;12.75;12.75;;;;;18.21;73.53;102037.22;5033772;28;45565;-79
2021/08/31 03:57:12;;;;;;;;;18.00;11.50;;;;;18.25;73.48;102033.47;5036033;28;45553;-79
2021/08/31 03:59:37;;;;;;;;;17.75;15.50;;;;;18.26;73.86;102037.84;5035367;28;45490;-79
2021/08/31 04:02:02;;;;;;;;;14.25;11.50;;;;;18.28;73.28;102048.41;5036119;28;45541;-79
2021/08/31 04:04:28;;;;;;;;;12.50;12.00;;;;;18.18;73.28;102038.25;5036683;28;47840;-79
2021/08/31 04:06:53;;;;;;;;;17.00;14.25;;;;;18.25;73.14;102052.09;5036710;28;45508;-79
2021/08/31 04:09:19;;;;;;;;;15.75;14.50;;;;;18.20;73.46;102048.81;5035825;28;45525;-79
2021/08/31 04:11:44;;;;;;;;;15.00;13.00;;;;;18.21;73.39;102053.19;5036248;28;45510;-78
2021/08/31 04:14:09;;;;;;;;;16.75;11.75;;;;;18.22;73.29;102057.59;5035884;28;45392;-79
2021/08/31 04:16:35;;;;;;;;;12.75;11.25;;;;;18.23;73.07;102048.66;5036530;28;45497;-79
2021/08/31 04:19:00;;;;;;;;;20.50;14.50;;;;;18.23;73.77;102051.31;5036103;28;45427;-78
2021/08/31 04:21:25;;;;;;;;;13.00;11.50;;;;;18.23;73.91;102046.84;5034896;28;54748;-79
2021/08/31 04:23:50;;;;;;;;;15.50;14.75;;;;;18.23;73.66;102046.00;5035851;28;55145;-77
2021/08/31 04:26:16;;;;;;;;;14.75;12.75;;;;;18.22;73.40;102045.16;5035724;28;55958;-78
2021/08/31 04:28:41;;;;;;;;;18.00;14.00;;;;;18.28;73.51;102051.94;5035002;28;60483;-79
2021/08/31 04:31:06;;;;;;;;;16.25;14.50;;;;;18.26;73.74;102052.00;5035682;28;45432;-79
2021/08/31 04:33:31;;;;;;;;;15.75;12.75;;;;;18.27;73.08;102052.88;5035025;28;51607;-79
2021/08/31 04:35:57;;;;;;;;;15.75;14.75;;;;;18.23;73.83;102052.19;5035330;28;51565;-79
2021/08/31 04:38:22;;;;;;;;;19.75;17.75;;;;;18.23;73.14;102052.19;5035624;28;45755;-79
2021/08/31 04:40:47;;;;;;;;;16.75;15.25;;;;;18.21;73.30;102054.03;5035770;28;45701;-78
2021/08/31 04:43:13;;;;;;;;;17.75;16.25;;;;;18.21;73.41;102054.03;5035406;28;54162;-80
2021/08/31 04:45:38;;;;;;;;;21.50;17.50;;;;;18.21;72.99;102059.38;5035975;28;45515;-78
2021/08/31 04:48:04;;;;;;;;;23.75;19.50;;;;;18.23;73.28;102060.16;5035252;28;45636;-79
2021/08/31 04:50:29;;;;;;;;;18.25;18.25;;;;;18.21;73.75;102062.03;5035151;28;46950;-78
2021/08/31 04:52:54;;;;;;;;;22.25;16.50;;;;;18.20;73.26;102059.47;5035650;28;45462;-79
2021/08/31 04:55:20;;;;;;;;;18.75;18.75;;;;;18.22;73.31;102068.25;5035443;28;46537;-79
2021/08/31 04:57:45;;;;;;;;;24.25;17.75;;;;;18.22;73.36;102065.56;5035097;28;45508;-79
2021/08/31 05:00:11;;;;;;;;;23.75;20.25;;;;;18.18;73.63;102066.69;5034767;28;46101;-78
2021/08/31 05:02:36;;;;;;;;;16.00;15.25;;;;;18.15;73.21;102058.84;5035414;28;45518;-78
2021/08/31 05:05:04;;;;;;;;;20.50;18.75;;;;;18.22;73.50;102073.56;5036037;28;45320;-76
2021/08/31 05:07:30;;;;;;;;;19.50;19.50;;;;;18.24;73.71;102077.84;5034431;28;45453;-80
2021/08/31 05:09:55;;;;;;;;;24.75;19.75;;;;;18.29;74.03;102074.06;5035697;28;49507;-79
2021/08/31 05:12:20;;;;;;;;;20.75;17.25;;;;;18.32;73.19;102076.56;5034520;28;45732;-79
2021/08/31 05:14:46;;;;;;;;;19.75;18.25;;;;;18.30;73.56;102070.47;5034679;28;45482;-78
2021/08/31 05:17:12;;;;;;;;;24.50;17.25;;;;;18.31;73.15;102077.50;5034762;28;45518;-79
2021/08/31 05:19:38;;;;;;;;;25.75;22.75;;;;;18.32;73.55;102077.41;5034790;28;48286;-79
2021/08/31 05:22:04;;;;;;;;;19.75;18.75;;;;;18.33;73.26;102080.97;5035183;28;45799;-79
2021/08/31 05:24:29;;;;;;;;;24.50;20.75;;;;;18.34;73.86;102074.69;5034560;28;45362;-78
2021/08/31 05:26:56;;;;;;;;;24.00;20.00;;;;;18.35;73.36;102082.59;5034595;28;45482;-78
2021/08/31 05:29:21;;;;;;;;;21.25;18.50;;;;;18.38;73.25;102081.56;5033848;28;46410;-79
2021/08/31 05:31:46;;;;;;;;;23.25;20.25;;;;;18.41;73.71;102084.91;5034644;28;45495;-79
2021/08/31 05:34:12;;;;;;;;;22.50;20.50;;;;;18.43;73.13;102083.03;5035963;28;45394;-79
2021/08/31 05:36:37;;;;;;;;;21.00;20.00;;;;;18.43;73.12;102085.69;5034692;28;45685;-78
2021/08/31 05:39:06;;;;;;;;;22.25;20.50;;;;;18.42;73.27;102080.44;5033838;28;46034;-77
2021/08/31 05:41:31;;;;;;;;;22.00;17.50;;;;;18.43;73.50;102080.38;5033788;28;45819;-79
2021/08/31 05:43:56;;;;;;;;;27.00;22.50;;;;;18.44;73.56;102081.22;5034837;28;45463;-78
2021/08/31 05:46:22;;;;;;;;;23.75;19.00;;;;;18.41;73.63;102082.25;5034950;28;54039;-79
2021/08/31 05:48:47;;;;;;;;;24.25;21.00;;;;;18.42;73.61;102083.09;5033577;28;46244;-78
2021/08/31 05:51:13;;;;;;;;;22.25;18.75;;;;;18.43;73.05;102087.50;5033817;28;45515;-78
2021/08/31 05:53:39;;;;;;;;;22.00;19.00;;;;;18.43;73.32;102084.84;5034472;28;45383;-78
2021/08/31 05:56:04;;;;;;;;;23.00;19.25;;;;;18.44;73.75;102083.91;5033692;28;45534;-78
2021/08/31 05:58:30;;;;;;;;;22.25;20.00;;;;;18.44;73.83;102095.41;5034433;28;46436;-76
2021/08/31 06:00:55;;;;;;;;;21.00;19.75;;;;;18.40;73.39;102079.69;5034784;28;45428;-77
2021/08/31 06:03:21;;;;;;;;;16.75;16.75;;;;;18.49;73.72;102096.00;5032730;28;53722;-75
2021/08/31 06:05:46;;;;;;;;;22.50;19.00;;;;;18.56;73.67;102106.31;5033651;28;45455;-79
2021/08/31 06:08:12;;;;;;;;;29.00;20.25;;;;;18.60;72.92;102100.75;5034110;28;45403;-78
2021/08/31 06:10:41;;;;;;;;;23.75;20.00;;;;;18.61;73.80;102098.94;5033376;28;52742;-79
2021/08/31 06:13:07;;;;;;;;;25.00;22.25;;;;;18.66;73.61;102097.75;5034618;28;45518;-79
2021/08/31 06:15:32;;;;;;;;;25.50;19.50;;;;;18.71;73.41;102105.50;5033714;28;45389;-79
2021/08/31 06:17:57;;;;;;;;;23.75;21.50;;;;;18.71;73.61;102103.69;5033371;28;45468;-79
2021/08/31 06:20:23;;;;;;;;;20.75;20.25;;;;;18.78;73.05;102110.41;5033986;28;45666;-79
2021/08/31 06:22:48;;;;;;;;;25.50;20.75;;;;;18.84;72.74;102111.84;5032240;28;45649;-80
2021/08/31 06:25:14;;;;;;;;;26.00;24.00;;;;;18.78;73.26;102098.88;5034035;28;45806;-80
2021/08/31 06:27:39;;;;;;;;;27.00;25.00;;;;;18.86;72.60;102115.31;5033801;28;45456;-82
2021/08/31 06:30:05;;;;;;;;;32.25;23.50;;;;;18.88;72.86;102108.09;5032969;28;45459;-77
2021/08/31 06:32:31;;;;;;;;;25.75;23.25;;;;;18.90;72.89;102116.88;5033540;28;45511;-78
2021/08/31 06:34:56;;;;;;;;;24.00;20.25;;;;;18.92;73.28;102114.97;5034040;28;45561;-77
2021/08/31 06:37:22;;;;;;;;;25.25;22.50;;;;;18.97;72.83;102120.03;5032687;28;46034;-78
2021/08/31 06:39:47;;;;;;;;;30.75;23.50;;;;;18.95;72.99;102106.81;5034574;28;45333;-78
2021/08/31 06:42:13;;;;;;;;;30.50;28.50;;;;;19.00;73.07;102118.06;5032827;28;45541;-78
2021/08/31 06:44:38;;;;;;;;;27.25;23.25;;;;;19.00;72.99;102117.19;5033833;28;45360;-79
2021/08/31 06:47:05;;;;;;;;;30.25;26.25;;;;;19.01;72.86;102117.13;5033696;28;45376;-78
2021/08/31 06:49:31;;;;;;;;;29.50;22.25;;;;;19.04;72.14;102124.91;5034688;28;45454;-78
2021/08/31 06:51:56;;;;;;;;;28.75;24.50;;;;;19.01;72.30;102122.44;5030808;28;45446;-78
2021/08/31 06:54:21;;;;;;;;;26.75;24.50;;;;;19.04;72.26;102118.72;5038621;28;52492;-77
2021/08/31 06:56:47;;;;;;;;;26.75;25.00;;;;;19.04;72.41;102121.41;5040411;28;55321;-77
2021/08/31 06:59:13;;;;;;;;;26.00;22.00;;;;;19.13;73.05;102118.22;5033125;28;45471;-77
2021/08/31 07:01:38;;;;;;;;;25.00;25.00;;;;;19.26;72.59;102123.69;5033571;28;45494;-77
2021/08/31 07:04:03;;;;;;;;;27.75;23.50;;;;;19.32;72.26;102118.03;5033886;28;45415;-77
2021/08/31 07:06:29;;;;;;;;;30.25;27.25;;;;;19.42;71.73;102118.34;5028410;28;45443;-77
2021/08/31 07:08:55;;;;;;;;;30.50;26.25;;;;;19.57;72.21;102125.44;5030069;28;45650;-77
2021/08/31 07:11:20;;;;;;;;;27.50;25.00;;;;;19.78;71.96;102121.56;5035480;28;45488;-77
2021/08/31 07:13:45;;;;;;;;;34.75;24.50;;;;;20.11;71.03;102122.28;5017359;28;45383;-77
2021/08/31 07:16:11;;;;;;;;;30.50;28.00;;;;;20.42;71.08;102127.44;5033422;28;45450;-78
2021/08/31 07:18:36;;;;;;;;;28.25;27.00;;;;;20.68;70.48;102116.97;5033045;28;45427;-77
2021/08/31 07:21:01;;;;;;;;;25.25;24.00;;;;;20.85;69.32;102127.44;5033006;28;45407;-78
2021/08/31 07:23:27;;;;;;;;;28.50;25.25;;;;;21.05;68.99;102116.31;5033376;28;45503;-77
2021/08/31 07:25:52;;;;;;;;;44.75;35.25;;;;;21.28;68.42;102119.28;5033036;28;47489;-78
2021/08/31 07:28:17;;;;;;;;;82.50;62.25;;;;;21.39;67.96;102121.28;5033436;28;45364;-77
2021/08/31 07:30:43;;;;;;;;;34.75;24.00;;;;;21.53;67.92;102119.41;5035315;28;45518;-78
2021/08/31 07:33:10;;;;;;;;;24.00;22.50;;;;;21.56;68.20;102089.78;5036693;28;45214;-78
2021/08/31 07:35:36;;;;;;;;;33.00;27.25;;;;;21.79;66.20;102120.31;5035735;28;46487;-78
2021/08/31 07:38:03;;;;;;;;;31.75;28.00;;;;;21.76;65.87;102122.31;5035775;28;45802;-78
2021/08/31 07:40:28;;;;;;;;;33.00;28.25;;;;;21.53;66.27;102095.31;5031910;28;45498;-78
2021/08/31 07:42:54;;;;;;;;;30.00;22.75;;;;;21.70;66.40;102128.97;5031928;28;45443;-78
2021/08/31 07:45:20;;;;;;;;;29.50;24.50;;;;;21.61;65.87;102129.56;5031878;28;45495;-78
2021/08/31 07:47:46;;;;;;;;;24.50;21.25;;;;;21.50;66.06;102102.69;5031121;28;45369;-78
2021/08/31 07:50:11;;;;;;;;;26.50;21.75;;;;;21.79;66.22;102133.69;5029656;28;45685;-79
2021/08/31 07:52:37;;;;;;;;;22.50;22.00;;;;;21.77;65.94;102127.59;5031618;28;45684;-78
2021/08/31 07:55:05;;;;;;;;;27.75;22.00;;;;;21.89;65.97;102129.41;5032164;28;46129;-78
2021/08/31 07:57:30;;;;;;;;;37.25;27.00;;;;;22.21;65.31;102130.88;5037846;28;46189;-78
2021/08/31 07:59:56;;;;;;;;;30.25;23.25;;;;;22.39;64.65;102135.81;5038551;28;45507;-78
2021/08/31 08:02:22;;;;;;;;;26.25;22.25;;;;;22.51;64.66;102138.56;5033695;28;45345;-78
2021/08/31 08:04:47;;;;;;;;;28.25;22.50;;;;;22.51;64.16;102128.72;5014956;28;62873;-77
2021/08/31 08:07:12;;;;;;;;;29.25;21.00;;;;;22.62;63.87;102133.28;5033745;28;54774;-78
2021/08/31 08:09:38;;;;;;;;;26.50;19.50;;;;;22.82;63.25;102148.81;5030172;28;45591;-78
2021/08/31 08:12:03;;;;;;;;;25.75;23.50;;;;;22.92;63.71;102144.53;5029720;28;45482;-78
2021/08/31 08:14:29;;;;;;;;;25.75;21.75;;;;;23.12;63.11;102160.94;5035464;28;45412;-78
2021/08/31 08:16:54;;;;;;;;;28.50;22.75;;;;;23.09;61.54;102145.09;5040268;28;45451;-78
2021/08/31 08:19:19;;;;;;;;;28.00;22.75;;;;;23.20;62.33;102163.09;5044849;28;45412;-78
2021/08/31 08:21:45;;;;;;;;;27.75;20.00;;;;;23.58;62.12;102161.06;5034698;28;45569;-78
2021/08/31 08:24:10;;;;;;;;;47.00;39.75;;;;;24.13;60.75;102164.09;5034660;28;46193;-78
2021/08/31 08:26:37;;;;;;;;;24.00;20.25;;;;;24.39;60.23;102159.41;5039815;28;45550;-77
2021/08/31 08:29:04;;;;;;;;;21.00;17.25;;;;;24.72;59.28;102161.22;5038870;28;45522;-75
2021/08/31 08:31:32;;;;;;;;;24.75;18.75;;;;;25.02;58.64;102157.88;5038870;28;45790;-78
2021/08/31 08:33:58;;;;;;;;;24.75;19.50;;;;;25.58;58.21;102156.88;5034967;28;46302;-78
2021/08/31 08:36:24;;;;;;;;;23.00;18.25;;;;;26.19;57.84;102148.97;5035075;28;45744;-75
2021/08/31 08:38:49;;;;;;;;;20.25;19.00;;;;;27.12;56.05;102158.75;5033658;28;45341;-81
2021/08/31 08:41:14;;;;;;;;;21.50;18.50;;;;;27.14;54.53;102162.16;5033514;28;49148;-78
2021/08/31 08:43:40;;;;;;;;;22.00;19.50;;;;;27.27;54.03;102160.91;5033464;28;45523;-77
2021/08/31 08:46:07;;;;;;;;;23.75;18.00;;;;;28.04;52.23;102156.50;5034936;28;45606;-77
2021/08/31 08:48:33;;;;;;;;;21.50;18.25;;;;;29.15;51.85;102154.78;5036822;28;45690;-77
2021/08/31 08:51:00;;;;;;;;;19.50;17.50;;;;;29.08;48.92;102163.50;5032513;28;45575;-74
2021/08/31 08:53:27;;;;;;;;;17.50;17.50;;;;;28.71;50.60;102168.97;5035390;28;47185;-74
2021/08/31 08:55:54;;;;;;;;;22.50;17.00;;;;;28.09;49.20;102183.94;5038559;28;45579;-74
2021/08/31 08:58:19;;;;;;;;;21.00;18.00;;;;;27.85;49.52;102178.13;5034930;28;45660;-74
2021/08/31 09:01:04;;;;;;;;;20.50;18.75;;;;;28.54;50.39;102178.69;5035223;28;45493;-76
2021/08/31 09:03:32;;;;;;;;;17.00;15.75;;;;;29.22;48.64;102172.94;5026815;28;48749;-76
2021/08/31 09:06:13;;;;;;;;;14.50;8.75;;;;;29.55;48.74;102176.03;5037018;28;45899;-74
2021/08/31 09:08:53;;;;;;;;;19.50;17.00;;;;;30.06;47.65;102177.94;5040881;28;45785;-74
2021/08/31 09:11:33;;;;;;;;;57.25;47.00;;;;;30.62;46.95;102182.03;5040963;28;45522;-75
2021/08/31 09:14:17;;;;;;;;;21.25;15.50;;;;;30.89;46.84;102182.84;5034911;28;47216;-74
2021/08/31 09:16:44;;;;;;;;;18.25;16.75;;;;;30.89;46.85;102186.41;5034874;28;46097;-76
2021/08/31 09:19:11;;;;;;;;;18.75;16.50;;;;;31.00;45.05;102182.53;5039033;28;45642;-75
2021/08/31 09:21:37;;;;;;;;;9.25;7.75;;;;;31.45;44.68;102184.03;5042272;28;45408;-76
2021/08/31 09:24:02;;;;;;;;;20.00;17.75;;;;;31.43;43.82;102177.94;5039578;28;45767;-76
2021/08/31 09:26:46;;;;;;;;;20.25;17.25;;;;;31.64;42.73;102191.03;5043372;28;45603;-75
2021/08/31 09:29:15;;;;;;;;;14.75;14.50;;;;;31.94;42.29;102182.19;5031416;28;46013;-76
2021/08/31 09:31:50;;;;;;;;;18.25;15.50;;;;;32.01;41.51;102178.81;5036914;28;45505;-76
2021/08/31 09:34:34;;;;;;;;;16.00;14.75;;;;;32.26;41.61;102182.31;5044605;28;45578;-75
2021/08/31 09:37:24;;;;;;;;;15.00;13.00;;;;;32.83;42.03;102183.00;5037992;28;45510;-76
2021/08/31 09:40:07;;;;;;;;;14.25;14.25;;;;;33.17;40.42;102171.78;5047290;28;45454;-76
2021/08/31 09:42:34;;;;;;;;;18.50;18.50;;;;;32.97;39.75;102179.56;5036904;28;45455;-76
2021/08/31 09:45:07;;;;;;;;;47.00;38.75;;;;;32.08;41.33;102186.09;5038598;28;45987;-77
2021/08/31 09:47:34;;;;;;;;;23.50;20.75;;;;;31.23;41.81;102188.22;5036768;28;47260;-76
2021/08/31 09:50:02;;;;;;;;;25.50;22.50;;;;;30.43;42.05;102190.41;5032794;28;45552;-76
2021/08/31 09:52:27;;;;;;;;;21.50;20.25;;;;;29.92;43.10;102183.09;5042497;28;45498;-76
2021/08/31 09:54:53;;;;;;;;;22.50;22.00;;;;;29.72;43.42;102179.72;5036375;28;46160;-76
2021/08/31 09:57:41;;;;;;;;;28.00;25.00;;;;;29.78;43.54;102177.22;5040149;28;46396;-75
2021/08/31 10:00:09;;;;;;;;;27.00;20.50;;;;;30.30;44.17;102185.44;5037197;28;45760;-76
2021/08/31 10:02:34;;;;;;;;;27.00;24.50;;;;;30.95;42.52;102182.19;5037173;28;45507;-76
2021/08/31 10:05:00;;;;;;;;;19.50;18.75;;;;;31.66;41.20;102170.81;5032453;28;45548;-76
2021/08/31 10:07:26;;;;;;;;;24.25;20.50;;;;;32.03;42.42;102184.91;5035312;28;45542;-76
2021/08/31 10:09:52;;;;;;;;;20.25;19.25;;;;;31.34;41.38;102190.66;5038895;28;45452;-76
2021/08/31 10:12:20;;;;;;;;;24.25;23.00;;;;;30.58;41.90;102199.66;5034692;28;45579;-76
2021/08/31 10:14:51;;;;;;;;;28.25;23.75;;;;;29.70;43.12;102197.97;5027941;28;46054;-76
2021/08/31 10:17:19;;;;;;;;;29.00;25.75;;;;;28.97;43.84;102192.63;5034929;28;45701;-76
2021/08/31 10:19:46;;;;;;;;;25.25;23.75;;;;;28.44;44.56;102194.09;5031629;28;45516;-76
2021/08/31 10:22:13;;;;;;;;;21.50;21.50;;;;;27.93;44.85;102195.34;5039006;28;45449;-77
2021/08/31 10:24:42;;;;;;;;;21.25;21.25;;;;;27.91;45.28;102186.50;5037836;28;46262;-76
2021/08/31 10:27:32;;;;;;;;;24.50;21.25;;;;;27.88;45.69;102188.63;5036593;28;46831;-77
2021/08/31 10:30:13;;;;;;;;;22.75;19.75;;;;;27.86;45.88;102191.50;5036076;28;45495;-76
2021/08/31 10:32:39;;;;;;;;;24.00;21.25;;;;;28.11;45.91;102192.75;5020887;28;45514;-76
2021/08/31 10:35:05;;;;;;;;;19.75;16.75;;;;;28.71;45.27;102193.31;5035285;28;45310;-75
2021/08/31 10:37:44;;;;;;;;;23.25;20.00;;;;;29.33;44.63;102193.53;5035686;28;45462;-76
2021/08/31 10:40:10;;;;;;;;;34.50;29.25;;;;;29.81;44.74;102195.03;5046955;28;45526;-76
2021/08/31 10:42:35;;;;;;;;;35.00;30.00;;;;;29.77;43.74;102197.22;5036956;28;45423;-75
2021/08/31 10:45:25;;;;;;;;;28.33;22.00;;;;;29.43;43.87;102197.03;5036788;28;46084;-76
2021/08/31 10:47:50;;;;;;;;;23.50;20.75;;;;;29.19;43.91;102203.06;5041869;28;45684;-76
2021/08/31 10:50:19;;;;;;;;;28.00;25.00;;;;;29.08;44.05;102197.84;5042022;28;45549;-75
2021/08/31 10:53:05;;;;;;;;;30.00;26.50;;;;;29.17;44.54;102185.25;5024841;28;45736;-74
2021/08/31 10:55:35;;;;;;;;;32.25;29.00;;;;;29.03;44.01;102201.00;5016766;28;47755;-81
2021/08/31 10:58:08;;;;;;;;;23.25;20.75;;;;;28.66;43.54;102187.50;5044111;28;45487;-81
2021/08/31 11:00:34;;;;;;;;;23.25;18.00;;;;;28.36;43.82;102190.44;5032799;28;45518;-80
2021/08/31 11:03:00;;;;;;;;;24.00;17.75;;;;;28.31;44.61;102193.56;5035311;28;47738;-79
2021/08/31 11:05:30;;;;;;;;;17.50;16.50;;;;;28.64;44.11;102188.63;5035459;28;46449;-78
2021/08/31 11:08:01;;;;;;;;;17.75;16.50;;;;;28.78;43.88;102196.25;5038151;28;45490;-76